sensor_id;sensor_type;location;lat;lon;timestamp;temperature;humidity
64209;DHT22;50527;52.414;13.226;2022-08-19T00:00:16;21.40;99.90
64209;DHT22;50527;52.414;13.226;2022-08-19T00:02:42;21.40;99.90
64209;DHT22;50527;52.414;13.226;2022-08-19T00:05:09;21.40;99.90
64209;DHT22;50527;52.414;13.226;2022-08-19T00:07:36;21.40;99.90
64209;DHT22;50527;52.414;13.226;2022-08-19T00:10:03;21.30;99.90
64209;DHT22;50527;52.414;13.226;2022-08-19T00:12:29;21.40;99.90
64209;DHT22;50527;52.414;13.226;2022-08-19T00:14:55;21.40;99.90
64209;DHT22;50527;52.414;13.226;2022-08-19T00:17:20;21.40;99.90
64209;DHT22;50527;52.414;13.226;2022-08-19T00:19:46;21.40;99.90
64209;DHT22;50527;52.414;13.226;2022-08-19T00:22:11;21.40;99.90
64209;DHT22;50527;52.414;13.226;2022-08-19T00:24:37;21.40;99.90
64209;DHT22;50527;52.414;13.226;2022-08-19T00:27:04;21.40;99.90
64209;DHT22;50527;52.414;13.226;2022-08-19T00:29:29;21.40;99.90
64209;DHT22;50527;52.414;13.226;2022-08-19T00:31:55;21.40;99.90
64209;DHT22;50527;52.414;13.226;2022-08-19T00:34:23;21.30;99.90
64209;DHT22;50527;52.414;13.226;2022-08-19T00:36:50;21.30;99.90
64209;DHT22;50527;52.414;13.226;2022-08-19T00:39:16;21.30;99.90
64209;DHT22;50527;52.414;13.226;2022-08-19T00:41:43;21.30;99.90
64209;DHT22;50527;52.414;13.226;2022-08-19T00:44:16;21.40;99.90
64209;DHT22;50527;52.414;13.226;2022-08-19T00:46:46;21.40;99.90
64209;DHT22;50527;52.414;13.226;2022-08-19T00:49:19;21.30;99.90
64209;DHT22;50527;52.414;13.226;2022-08-19T00:51:50;21.30;99.90
64209;DHT22;50527;52.414;13.226;2022-08-19T00:54:15;21.30;99.90
64209;DHT22;50527;52.414;13.226;2022-08-19T00:56:41;21.30;99.90
64209;DHT22;50527;52.414;13.226;2022-08-19T00:59:07;21.20;99.90
64209;DHT22;50527;52.414;13.226;2022-08-19T01:01:37;21.20;99.90
64209;DHT22;50527;52.414;13.226;2022-08-19T01:04:03;21.20;99.90
64209;DHT22;50527;52.414;13.226;2022-08-19T01:06:30;21.20;99.90
64209;DHT22;50527;52.414;13.226;2022-08-19T01:08:58;21.20;99.90
64209;DHT22;50527;52.414;13.226;2022-08-19T01:11:24;21.10;99.90
64209;DHT22;50527;52.414;13.226;2022-08-19T01:13:52;21.10;99.90
64209;DHT22;50527;52.414;13.226;2022-08-19T01:16:20;21.10;99.90
64209;DHT22;50527;52.414;13.226;2022-08-19T01:18:46;21.10;99.90
64209;DHT22;50527;52.414;13.226;2022-08-19T01:21:20;21.10;99.90
64209;DHT22;50527;52.414;13.226;2022-08-19T01:23:47;21.10;99.90
64209;DHT22;50527;52.414;13.226;2022-08-19T01:26:20;21.10;99.90
64209;DHT22;50527;52.414;13.226;2022-08-19T01:28:49;21.00;99.90
64209;DHT22;50527;52.414;13.226;2022-08-19T01:31:17;21.00;99.90
64209;DHT22;50527;52.414;13.226;2022-08-19T01:33:44;21.10;99.90
64209;DHT22;50527;52.414;13.226;2022-08-19T01:36:14;21.10;99.90
64209;DHT22;50527;52.414;13.226;2022-08-19T01:38:43;21.10;99.90
64209;DHT22;50527;52.414;13.226;2022-08-19T01:41:11;21.10;99.90
64209;DHT22;50527;52.414;13.226;2022-08-19T01:43:37;21.10;99.90
64209;DHT22;50527;52.414;13.226;2022-08-19T01:46:03;21.00;99.90
64209;DHT22;50527;52.414;13.226;2022-08-19T01:48:34;21.10;99.90
64209;DHT22;50527;52.414;13.226;2022-08-19T01:50:59;21.20;99.90
64209;DHT22;50527;52.414;13.226;2022-08-19T01:53:25;21.10;99.90
64209;DHT22;50527;52.414;13.226;2022-08-19T01:55:50;21.10;99.90
64209;DHT22;50527;52.414;13.226;2022-08-19T01:58:19;21.00;99.90
64209;DHT22;50527;52.414;13.226;2022-08-19T02:00:47;21.00;99.90
64209;DHT22;50527;52.414;13.226;2022-08-19T02:03:13;21.00;99.90
64209;DHT22;50527;52.414;13.226;2022-08-19T02:05:40;21.00;99.90
64209;DHT22;50527;52.414;13.226;2022-08-19T02:08:06;21.00;99.90
64209;DHT22;50527;52.414;13.226;2022-08-19T02:10:32;20.90;99.90
64209;DHT22;50527;52.414;13.226;2022-08-19T02:12:58;20.90;99.90
64209;DHT22;50527;52.414;13.226;2022-08-19T02:15:23;20.80;99.90
64209;DHT22;50527;52.414;13.226;2022-08-19T02:17:49;20.80;99.90
64209;DHT22;50527;52.414;13.226;2022-08-19T02:20:16;20.70;99.90
64209;DHT22;50527;52.414;13.226;2022-08-19T02:22:42;20.70;99.90
64209;DHT22;50527;52.414;13.226;2022-08-19T02:25:10;20.70;99.90
64209;DHT22;50527;52.414;13.226;2022-08-19T02:27:35;20.50;99.90
64209;DHT22;50527;52.414;13.226;2022-08-19T02:30:04;20.40;99.90
64209;DHT22;50527;52.414;13.226;2022-08-19T02:32:30;20.30;99.90
64209;DHT22;50527;52.414;13.226;2022-08-19T02:34:56;20.20;99.90
64209;DHT22;50527;52.414;13.226;2022-08-19T02:37:21;20.20;99.90
64209;DHT22;50527;52.414;13.226;2022-08-19T02:40:06;20.20;99.90
64209;DHT22;50527;52.414;13.226;2022-08-19T02:42:32;20.30;99.90
64209;DHT22;50527;52.414;13.226;2022-08-19T02:44:57;20.20;99.90
64209;DHT22;50527;52.414;13.226;2022-08-19T02:47:23;20.20;99.90
64209;DHT22;50527;52.414;13.226;2022-08-19T02:49:48;20.20;99.90
64209;DHT22;50527;52.414;13.226;2022-08-19T02:52:15;20.10;99.90
64209;DHT22;50527;52.414;13.226;2022-08-19T02:54:41;20.20;99.90
64209;DHT22;50527;52.414;13.226;2022-08-19T02:57:06;20.20;99.90
64209;DHT22;50527;52.414;13.226;2022-08-19T02:59:33;20.10;99.90
64209;DHT22;50527;52.414;13.226;2022-08-19T03:01:58;20.10;99.90
64209;DHT22;50527;52.414;13.226;2022-08-19T03:04:24;20.20;99.90
64209;DHT22;50527;52.414;13.226;2022-08-19T03:06:50;20.10;99.90
64209;DHT22;50527;52.414;13.226;2022-08-19T03:09:18;20.20;99.90
64209;DHT22;50527;52.414;13.226;2022-08-19T03:11:44;20.20;99.90
64209;DHT22;50527;52.414;13.226;2022-08-19T03:14:11;20.10;99.90
64209;DHT22;50527;52.414;13.226;2022-08-19T03:16:44;20.10;99.90
64209;DHT22;50527;52.414;13.226;2022-08-19T03:19:10;20.10;99.90
64209;DHT22;50527;52.414;13.226;2022-08-19T03:21:36;20.10;99.90
64209;DHT22;50527;52.414;13.226;2022-08-19T03:24:05;20.20;99.90
64209;DHT22;50527;52.414;13.226;2022-08-19T03:26:31;20.10;99.90
64209;DHT22;50527;52.414;13.226;2022-08-19T03:28:56;20.10;99.90
64209;DHT22;50527;52.414;13.226;2022-08-19T03:31:23;20.10;99.90
64209;DHT22;50527;52.414;13.226;2022-08-19T03:33:50;20.00;99.90
64209;DHT22;50527;52.414;13.226;2022-08-19T03:36:19;20.10;99.90
64209;DHT22;50527;52.414;13.226;2022-08-19T03:38:49;20.00;99.90
64209;DHT22;50527;52.414;13.226;2022-08-19T03:41:18;20.00;99.90
64209;DHT22;50527;52.414;13.226;2022-08-19T03:43:44;20.00;99.90
64209;DHT22;50527;52.414;13.226;2022-08-19T03:46:15;20.10;99.90
64209;DHT22;50527;52.414;13.226;2022-08-19T03:48:42;20.00;99.90
64209;DHT22;50527;52.414;13.226;2022-08-19T03:51:18;20.00;99.90
64209;DHT22;50527;52.414;13.226;2022-08-19T03:53:45;20.00;99.90
64209;DHT22;50527;52.414;13.226;2022-08-19T03:56:11;20.00;99.90
64209;DHT22;50527;52.414;13.226;2022-08-19T03:58:39;20.00;99.90
64209;DHT22;50527;52.414;13.226;2022-08-19T04:01:12;20.00;99.90
64209;DHT22;50527;52.414;13.226;2022-08-19T04:03:38;20.00;99.90
64209;DHT22;50527;52.414;13.226;2022-08-19T04:06:31;20.00;99.90
64209;DHT22;50527;52.414;13.226;2022-08-19T04:08:57;20.10;99.90
64209;DHT22;50527;52.414;13.226;2022-08-19T04:11:34;20.10;99.90
64209;DHT22;50527;52.414;13.226;2022-08-19T04:14:00;20.10;99.90
64209;DHT22;50527;52.414;13.226;2022-08-19T04:16:27;20.10;99.90
64209;DHT22;50527;52.414;13.226;2022-08-19T04:18:54;20.10;99.90
64209;DHT22;50527;52.414;13.226;2022-08-19T04:21:24;20.20;99.90
64209;DHT22;50527;52.414;13.226;2022-08-19T04:23:49;20.10;99.90
64209;DHT22;50527;52.414;13.226;2022-08-19T04:26:19;20.10;99.90
64209;DHT22;50527;52.414;13.226;2022-08-19T04:28:45;20.20;99.90
64209;DHT22;50527;52.414;13.226;2022-08-19T04:31:26;20.10;99.90
64209;DHT22;50527;52.414;13.226;2022-08-19T04:33:59;20.10;99.90
64209;DHT22;50527;52.414;13.226;2022-08-19T04:36:28;20.10;99.90
64209;DHT22;50527;52.414;13.226;2022-08-19T04:38:56;20.20;99.90
64209;DHT22;50527;52.414;13.226;2022-08-19T04:41:22;20.20;99.90
64209;DHT22;50527;52.414;13.226;2022-08-19T04:44:06;20.20;99.90
64209;DHT22;50527;52.414;13.226;2022-08-19T04:46:32;20.20;99.90
64209;DHT22;50527;52.414;13.226;2022-08-19T04:48:59;20.20;99.90
64209;DHT22;50527;52.414;13.226;2022-08-19T04:51:25;20.20;99.90
64209;DHT22;50527;52.414;13.226;2022-08-19T04:53:51;20.30;99.90
64209;DHT22;50527;52.414;13.226;2022-08-19T04:56:18;20.30;99.90
64209;DHT22;50527;52.414;13.226;2022-08-19T04:58:47;20.30;99.90
64209;DHT22;50527;52.414;13.226;2022-08-19T05:01:26;20.30;99.90
64209;DHT22;50527;52.414;13.226;2022-08-19T05:03:53;20.40;99.90
64209;DHT22;50527;52.414;13.226;2022-08-19T05:06:21;20.50;99.90
64209;DHT22;50527;52.414;13.226;2022-08-19T05:08:47;20.40;99.90
64209;DHT22;50527;52.414;13.226;2022-08-19T05:11:22;20.50;99.90
64209;DHT22;50527;52.414;13.226;2022-08-19T05:13:48;20.40;99.90
64209;DHT22;50527;52.414;13.226;2022-08-19T05:16:15;20.50;99.90
64209;DHT22;50527;52.414;13.226;2022-08-19T05:18:41;20.50;99.90
64209;DHT22;50527;52.414;13.226;2022-08-19T05:21:26;20.60;99.90
64209;DHT22;50527;52.414;13.226;2022-08-19T05:24:11;20.60;99.90
64209;DHT22;50527;52.414;13.226;2022-08-19T05:26:38;20.70;99.90
64209;DHT22;50527;52.414;13.226;2022-08-19T05:29:04;20.80;99.90
64209;DHT22;50527;52.414;13.226;2022-08-19T05:31:30;20.80;99.90
64209;DHT22;50527;52.414;13.226;2022-08-19T05:33:56;20.80;99.90
64209;DHT22;50527;52.414;13.226;2022-08-19T05:36:24;20.90;99.90
64209;DHT22;50527;52.414;13.226;2022-08-19T05:38:50;20.90;99.90
64209;DHT22;50527;52.414;13.226;2022-08-19T05:41:17;20.90;99.90
64209;DHT22;50527;52.414;13.226;2022-08-19T05:43:42;21.00;99.90
64209;DHT22;50527;52.414;13.226;2022-08-19T05:46:08;21.00;99.90
64209;DHT22;50527;52.414;13.226;2022-08-19T05:48:40;21.10;99.90
64209;DHT22;50527;52.414;13.226;2022-08-19T05:51:06;21.10;99.90
64209;DHT22;50527;52.414;13.226;2022-08-19T05:53:33;21.10;99.90
64209;DHT22;50527;52.414;13.226;2022-08-19T05:56:07;21.20;99.90
64209;DHT22;50527;52.414;13.226;2022-08-19T05:58:34;21.20;99.90
64209;DHT22;50527;52.414;13.226;2022-08-19T06:00:59;21.20;99.90
64209;DHT22;50527;52.414;13.226;2022-08-19T06:03:31;21.30;99.90
64209;DHT22;50527;52.414;13.226;2022-08-19T06:05:58;21.30;99.90
64209;DHT22;50527;52.414;13.226;2022-08-19T06:08:25;21.30;99.90
64209;DHT22;50527;52.414;13.226;2022-08-19T06:10:50;21.30;99.90
64209;DHT22;50527;52.414;13.226;2022-08-19T06:13:16;21.30;99.90
64209;DHT22;50527;52.414;13.226;2022-08-19T06:15:42;21.30;99.90
64209;DHT22;50527;52.414;13.226;2022-08-19T06:18:09;21.40;99.90
64209;DHT22;50527;52.414;13.226;2022-08-19T06:20:34;21.40;99.90
64209;DHT22;50527;52.414;13.226;2022-08-19T06:23:00;21.40;99.90
64209;DHT22;50527;52.414;13.226;2022-08-19T06:25:26;21.50;99.90
64209;DHT22;50527;52.414;13.226;2022-08-19T06:27:51;21.60;99.90
64209;DHT22;50527;52.414;13.226;2022-08-19T06:30:17;21.70;99.90
64209;DHT22;50527;52.414;13.226;2022-08-19T06:32:42;21.60;99.90
64209;DHT22;50527;52.414;13.226;2022-08-19T06:35:08;21.60;99.90
64209;DHT22;50527;52.414;13.226;2022-08-19T06:37:33;21.60;99.90
64209;DHT22;50527;52.414;13.226;2022-08-19T06:39:59;21.60;99.90
64209;DHT22;50527;52.414;13.226;2022-08-19T06:42:24;21.50;99.90
64209;DHT22;50527;52.414;13.226;2022-08-19T06:44:50;21.50;99.90
64209;DHT22;50527;52.414;13.226;2022-08-19T06:47:18;21.50;99.90
64209;DHT22;50527;52.414;13.226;2022-08-19T06:49:44;21.50;99.90
64209;DHT22;50527;52.414;13.226;2022-08-19T06:52:10;21.60;99.90
64209;DHT22;50527;52.414;13.226;2022-08-19T06:54:40;21.60;99.90
64209;DHT22;50527;52.414;13.226;2022-08-19T06:57:07;21.70;99.90
64209;DHT22;50527;52.414;13.226;2022-08-19T06:59:38;21.70;99.90
64209;DHT22;50527;52.414;13.226;2022-08-19T07:02:06;21.70;99.90
64209;DHT22;50527;52.414;13.226;2022-08-19T07:04:33;21.90;99.90
64209;DHT22;50527;52.414;13.226;2022-08-19T07:07:05;22.00;99.90
64209;DHT22;50527;52.414;13.226;2022-08-19T07:09:33;22.30;99.90
64209;DHT22;50527;52.414;13.226;2022-08-19T07:11:59;22.50;99.90
64209;DHT22;50527;52.414;13.226;2022-08-19T07:14:26;22.60;99.90
64209;DHT22;50527;52.414;13.226;2022-08-19T07:16:53;22.60;99.90
64209;DHT22;50527;52.414;13.226;2022-08-19T07:19:25;22.60;99.90
64209;DHT22;50527;52.414;13.226;2022-08-19T07:21:52;22.60;99.90
64209;DHT22;50527;52.414;13.226;2022-08-19T07:24:23;22.50;99.90
64209;DHT22;50527;52.414;13.226;2022-08-19T07:26:50;22.30;99.90
64209;DHT22;50527;52.414;13.226;2022-08-19T07:29:16;22.20;99.90
64209;DHT22;50527;52.414;13.226;2022-08-19T07:31:42;22.20;99.90
64209;DHT22;50527;52.414;13.226;2022-08-19T07:34:09;22.10;99.90
64209;DHT22;50527;52.414;13.226;2022-08-19T07:36:39;22.10;99.90
64209;DHT22;50527;52.414;13.226;2022-08-19T07:39:16;22.20;99.90
64209;DHT22;50527;52.414;13.226;2022-08-19T07:41:42;22.20;99.90
64209;DHT22;50527;52.414;13.226;2022-08-19T07:44:08;22.20;99.90
64209;DHT22;50527;52.414;13.226;2022-08-19T07:46:36;22.20;99.90
64209;DHT22;50527;52.414;13.226;2022-08-19T07:49:04;22.20;99.90
64209;DHT22;50527;52.414;13.226;2022-08-19T07:51:30;22.30;99.90
64209;DHT22;50527;52.414;13.226;2022-08-19T07:53:56;22.40;99.90
64209;DHT22;50527;52.414;13.226;2022-08-19T07:56:22;22.40;99.90
64209;DHT22;50527;52.414;13.226;2022-08-19T07:58:49;22.40;99.90
64209;DHT22;50527;52.414;13.226;2022-08-19T08:01:19;22.30;99.90
64209;DHT22;50527;52.414;13.226;2022-08-19T08:03:45;22.30;99.90
64209;DHT22;50527;52.414;13.226;2022-08-19T08:06:29;22.30;99.90
64209;DHT22;50527;52.414;13.226;2022-08-19T08:09:14;22.40;99.90
64209;DHT22;50527;52.414;13.226;2022-08-19T08:11:53;22.40;99.90
64209;DHT22;50527;52.414;13.226;2022-08-19T08:14:41;22.40;99.90
64209;DHT22;50527;52.414;13.226;2022-08-19T08:17:08;22.20;99.90
64209;DHT22;50527;52.414;13.226;2022-08-19T08:19:35;22.20;99.90
64209;DHT22;50527;52.414;13.226;2022-08-19T08:22:01;22.20;99.90
64209;DHT22;50527;52.414;13.226;2022-08-19T08:24:30;22.20;99.90
64209;DHT22;50527;52.414;13.226;2022-08-19T08:26:58;22.20;99.90
64209;DHT22;50527;52.414;13.226;2022-08-19T08:29:25;22.30;99.90
64209;DHT22;50527;52.414;13.226;2022-08-19T08:31:51;22.20;99.90
64209;DHT22;50527;52.414;13.226;2022-08-19T08:34:16;22.20;99.90
64209;DHT22;50527;52.414;13.226;2022-08-19T08:36:44;22.20;99.90
64209;DHT22;50527;52.414;13.226;2022-08-19T08:39:19;22.20;99.90
64209;DHT22;50527;52.414;13.226;2022-08-19T08:47:04;22.20;99.90
64209;DHT22;50527;52.414;13.226;2022-08-19T08:49:41;22.10;99.90
64209;DHT22;50527;52.414;13.226;2022-08-19T08:52:15;22.10;99.90
64209;DHT22;50527;52.414;13.226;2022-08-19T08:54:44;22.10;99.90
64209;DHT22;50527;52.414;13.226;2022-08-19T08:57:15;22.10;99.90
64209;DHT22;50527;52.414;13.226;2022-08-19T08:59:48;22.10;99.90
64209;DHT22;50527;52.414;13.226;2022-08-19T09:02:16;22.10;99.90
64209;DHT22;50527;52.414;13.226;2022-08-19T09:04:41;22.10;99.90
64209;DHT22;50527;52.414;13.226;2022-08-19T09:07:43;22.20;99.90
64209;DHT22;50527;52.414;13.226;2022-08-19T09:13:08;22.10;99.90
64209;DHT22;50527;52.414;13.226;2022-08-19T09:15:43;22.20;99.90
64209;DHT22;50527;52.414;13.226;2022-08-19T09:18:10;22.20;99.90
64209;DHT22;50527;52.414;13.226;2022-08-19T09:20:36;22.20;99.90
64209;DHT22;50527;52.414;13.226;2022-08-19T09:23:02;22.20;99.90
64209;DHT22;50527;52.414;13.226;2022-08-19T09:25:28;22.10;99.90
64209;DHT22;50527;52.414;13.226;2022-08-19T09:27:55;22.10;99.90
64209;DHT22;50527;52.414;13.226;2022-08-19T09:30:27;22.10;99.90
64209;DHT22;50527;52.414;13.226;2022-08-19T09:32:53;22.10;99.90
64209;DHT22;50527;52.414;13.226;2022-08-19T09:35:24;22.10;99.90
64209;DHT22;50527;52.414;13.226;2022-08-19T09:37:51;22.00;99.90
64209;DHT22;50527;52.414;13.226;2022-08-19T09:40:17;22.10;99.90
64209;DHT22;50527;52.414;13.226;2022-08-19T09:42:44;22.10;99.90
64209;DHT22;50527;52.414;13.226;2022-08-19T09:45:12;22.20;99.90
64209;DHT22;50527;52.414;13.226;2022-08-19T09:47:37;22.20;99.90
64209;DHT22;50527;52.414;13.226;2022-08-19T09:50:08;22.10;99.90
64209;DHT22;50527;52.414;13.226;2022-08-19T09:52:34;22.30;99.90
64209;DHT22;50527;52.414;13.226;2022-08-19T09:55:05;22.30;99.90
64209;DHT22;50527;52.414;13.226;2022-08-19T09:57:32;22.20;99.90
64209;DHT22;50527;52.414;13.226;2022-08-19T09:59:57;22.20;99.90
64209;DHT22;50527;52.414;13.226;2022-08-19T10:02:23;22.30;99.90
64209;DHT22;50527;52.414;13.226;2022-08-19T10:04:50;22.30;99.90
64209;DHT22;50527;52.414;13.226;2022-08-19T10:07:34;22.20;99.90
64209;DHT22;50527;52.414;13.226;2022-08-19T10:10:00;22.30;99.90
64209;DHT22;50527;52.414;13.226;2022-08-19T10:12:26;22.30;99.90
64209;DHT22;50527;52.414;13.226;2022-08-19T10:14:51;22.40;99.90
64209;DHT22;50527;52.414;13.226;2022-08-19T10:17:19;22.50;99.90
64209;DHT22;50527;52.414;13.226;2022-08-19T10:19:44;22.50;99.90
64209;DHT22;50527;52.414;13.226;2022-08-19T10:22:10;22.70;99.90
64209;DHT22;50527;52.414;13.226;2022-08-19T10:24:38;22.90;99.90
64209;DHT22;50527;52.414;13.226;2022-08-19T10:27:04;23.10;99.90
64209;DHT22;50527;52.414;13.226;2022-08-19T10:29:31;23.10;99.90
64209;DHT22;50527;52.414;13.226;2022-08-19T10:31:57;23.20;99.00
64209;DHT22;50527;52.414;13.226;2022-08-19T10:34:24;23.30;99.50
64209;DHT22;50527;52.414;13.226;2022-08-19T10:36:49;23.30;99.10
64209;DHT22;50527;52.414;13.226;2022-08-19T10:39:15;23.30;98.10
64209;DHT22;50527;52.414;13.226;2022-08-19T10:41:41;23.30;99.10
64209;DHT22;50527;52.414;13.226;2022-08-19T10:44:11;23.30;97.80
64209;DHT22;50527;52.414;13.226;2022-08-19T10:46:39;23.40;98.10
64209;DHT22;50527;52.414;13.226;2022-08-19T10:49:07;23.40;98.80
64209;DHT22;50527;52.414;13.226;2022-08-19T10:51:33;23.40;97.40
64209;DHT22;50527;52.414;13.226;2022-08-19T10:54:18;23.40;97.20
64209;DHT22;50527;52.414;13.226;2022-08-19T10:56:44;23.30;96.50
64209;DHT22;50527;52.414;13.226;2022-08-19T10:59:26;23.40;97.40
64209;DHT22;50527;52.414;13.226;2022-08-19T11:01:58;23.40;97.60
64209;DHT22;50527;52.414;13.226;2022-08-19T11:04:24;23.50;97.50
64209;DHT22;50527;52.414;13.226;2022-08-19T11:06:49;23.40;98.40
64209;DHT22;50527;52.414;13.226;2022-08-19T11:09:20;23.40;97.80
64209;DHT22;50527;52.414;13.226;2022-08-19T11:11:46;23.20;97.00
64209;DHT22;50527;52.414;13.226;2022-08-19T11:14:15;23.20;97.70
64209;DHT22;50527;52.414;13.226;2022-08-19T11:16:43;23.10;98.20
64209;DHT22;50527;52.414;13.226;2022-08-19T11:19:10;23.00;98.10
64209;DHT22;50527;52.414;13.226;2022-08-19T11:21:38;23.00;98.10
64209;DHT22;50527;52.414;13.226;2022-08-19T11:24:07;22.90;99.10
64209;DHT22;50527;52.414;13.226;2022-08-19T11:26:34;22.70;99.90
64209;DHT22;50527;52.414;13.226;2022-08-19T11:29:01;22.70;99.90
64209;DHT22;50527;52.414;13.226;2022-08-19T11:31:29;22.80;99.90
64209;DHT22;50527;52.414;13.226;2022-08-19T11:33:59;22.70;99.90
64209;DHT22;50527;52.414;13.226;2022-08-19T11:36:25;22.70;99.90
64209;DHT22;50527;52.414;13.226;2022-08-19T11:38:51;22.80;99.90
64209;DHT22;50527;52.414;13.226;2022-08-19T11:41:19;22.90;99.90
64209;DHT22;50527;52.414;13.226;2022-08-19T11:43:44;23.00;99.80
64209;DHT22;50527;52.414;13.226;2022-08-19T11:46:13;23.10;98.20
64209;DHT22;50527;52.414;13.226;2022-08-19T11:48:39;23.20;97.30
64209;DHT22;50527;52.414;13.226;2022-08-19T11:51:13;23.30;97.40
64209;DHT22;50527;52.414;13.226;2022-08-19T11:53:39;23.30;96.70
64209;DHT22;50527;52.414;13.226;2022-08-19T11:56:07;23.30;97.00
64209;DHT22;50527;52.414;13.226;2022-08-19T11:58:32;23.30;96.40
64209;DHT22;50527;52.414;13.226;2022-08-19T12:00:58;23.30;97.30
64209;DHT22;50527;52.414;13.226;2022-08-19T12:03:23;23.20;96.60
64209;DHT22;50527;52.414;13.226;2022-08-19T12:05:49;23.20;96.50
64209;DHT22;50527;52.414;13.226;2022-08-19T12:08:15;23.20;97.00
64209;DHT22;50527;52.414;13.226;2022-08-19T12:10:41;23.20;97.90
64209;DHT22;50527;52.414;13.226;2022-08-19T12:13:08;23.20;97.90
64209;DHT22;50527;52.414;13.226;2022-08-19T12:15:38;23.20;98.00
64209;DHT22;50527;52.414;13.226;2022-08-19T12:18:05;23.20;97.20
64209;DHT22;50527;52.414;13.226;2022-08-19T12:20:33;23.10;97.50
64209;DHT22;50527;52.414;13.226;2022-08-19T12:22:59;23.00;98.80
64209;DHT22;50527;52.414;13.226;2022-08-19T12:25:24;22.90;99.10
64209;DHT22;50527;52.414;13.226;2022-08-19T12:27:50;23.00;99.20
64209;DHT22;50527;52.414;13.226;2022-08-19T12:30:16;22.90;99.30
64209;DHT22;50527;52.414;13.226;2022-08-19T12:32:41;22.90;98.30
64209;DHT22;50527;52.414;13.226;2022-08-19T12:35:07;22.80;98.70
64209;DHT22;50527;52.414;13.226;2022-08-19T12:37:34;22.80;98.80
64209;DHT22;50527;52.414;13.226;2022-08-19T12:40:00;22.70;99.90
64209;DHT22;50527;52.414;13.226;2022-08-19T12:42:25;22.80;99.10
64209;DHT22;50527;52.414;13.226;2022-08-19T12:44:50;22.70;99.90
64209;DHT22;50527;52.414;13.226;2022-08-19T12:47:17;22.70;99.70
64209;DHT22;50527;52.414;13.226;2022-08-19T12:49:43;22.70;99.50
64209;DHT22;50527;52.414;13.226;2022-08-19T12:52:09;22.80;99.90
64209;DHT22;50527;52.414;13.226;2022-08-19T12:54:36;22.80;99.90
64209;DHT22;50527;52.414;13.226;2022-08-19T12:57:06;22.90;99.40
64209;DHT22;50527;52.414;13.226;2022-08-19T12:59:33;22.90;99.90
64209;DHT22;50527;52.414;13.226;2022-08-19T13:01:59;23.00;99.90
64209;DHT22;50527;52.414;13.226;2022-08-19T13:04:25;23.00;99.90
64209;DHT22;50527;52.414;13.226;2022-08-19T13:06:50;23.00;99.90
64209;DHT22;50527;52.414;13.226;2022-08-19T13:09:16;22.90;99.90
64209;DHT22;50527;52.414;13.226;2022-08-19T13:11:41;22.90;99.50
64209;DHT22;50527;52.414;13.226;2022-08-19T13:14:08;22.80;99.90
64209;DHT22;50527;52.414;13.226;2022-08-19T13:16:36;22.80;99.90
64209;DHT22;50527;52.414;13.226;2022-08-19T13:19:02;22.70;99.90
64209;DHT22;50527;52.414;13.226;2022-08-19T13:21:29;22.70;99.90
64209;DHT22;50527;52.414;13.226;2022-08-19T13:23:56;22.60;99.90
64209;DHT22;50527;52.414;13.226;2022-08-19T13:26:21;22.70;99.90
64209;DHT22;50527;52.414;13.226;2022-08-19T13:28:47;22.60;99.90
64209;DHT22;50527;52.414;13.226;2022-08-19T13:31:33;22.70;99.90
64209;DHT22;50527;52.414;13.226;2022-08-19T13:34:25;22.70;99.90
64209;DHT22;50527;52.414;13.226;2022-08-19T13:36:52;22.60;99.90
64209;DHT22;50527;52.414;13.226;2022-08-19T13:39:18;22.70;99.90
64209;DHT22;50527;52.414;13.226;2022-08-19T13:41:45;22.70;99.90
64209;DHT22;50527;52.414;13.226;2022-08-19T13:44:16;22.60;99.90
64209;DHT22;50527;52.414;13.226;2022-08-19T13:46:43;22.60;99.90
64209;DHT22;50527;52.414;13.226;2022-08-19T13:49:11;22.70;99.90
64209;DHT22;50527;52.414;13.226;2022-08-19T13:51:38;22.70;99.90
64209;DHT22;50527;52.414;13.226;2022-08-19T13:54:05;22.80;99.90
64209;DHT22;50527;52.414;13.226;2022-08-19T13:56:30;23.00;99.90
64209;DHT22;50527;52.414;13.226;2022-08-19T13:58:56;23.20;99.20
64209;DHT22;50527;52.414;13.226;2022-08-19T14:01:23;23.30;97.50
64209;DHT22;50527;52.414;13.226;2022-08-19T14:03:49;23.40;98.00
64209;DHT22;50527;52.414;13.226;2022-08-19T14:06:14;23.40;97.20
64209;DHT22;50527;52.414;13.226;2022-08-19T14:08:40;23.50;97.50
64209;DHT22;50527;52.414;13.226;2022-08-19T14:11:07;23.50;97.00
64209;DHT22;50527;52.414;13.226;2022-08-19T14:13:33;23.50;97.60
64209;DHT22;50527;52.414;13.226;2022-08-19T14:15:59;23.60;96.50
64209;DHT22;50527;52.414;13.226;2022-08-19T14:18:25;23.60;96.20
64209;DHT22;50527;52.414;13.226;2022-08-19T14:20:51;23.50;97.30
64209;DHT22;50527;52.414;13.226;2022-08-19T14:23:17;23.40;97.30
64209;DHT22;50527;52.414;13.226;2022-08-19T14:25:43;23.40;97.50
64209;DHT22;50527;52.414;13.226;2022-08-19T14:28:08;23.50;96.40
64209;DHT22;50527;52.414;13.226;2022-08-19T14:30:36;23.50;96.30
64209;DHT22;50527;52.414;13.226;2022-08-19T14:33:03;23.40;97.30
64209;DHT22;50527;52.414;13.226;2022-08-19T14:35:31;23.50;97.00
64209;DHT22;50527;52.414;13.226;2022-08-19T14:37:59;23.50;95.30
64209;DHT22;50527;52.414;13.226;2022-08-19T14:40:27;23.50;95.70
64209;DHT22;50527;52.414;13.226;2022-08-19T14:42:54;23.40;95.60
64209;DHT22;50527;52.414;13.226;2022-08-19T14:45:26;23.40;95.60
64209;DHT22;50527;52.414;13.226;2022-08-19T14:47:52;23.30;96.20
64209;DHT22;50527;52.414;13.226;2022-08-19T14:50:18;23.30;96.70
64209;DHT22;50527;52.414;13.226;2022-08-19T14:52:46;23.30;97.00
64209;DHT22;50527;52.414;13.226;2022-08-19T14:55:13;23.30;96.20
64209;DHT22;50527;52.414;13.226;2022-08-19T14:57:40;23.30;95.90
64209;DHT22;50527;52.414;13.226;2022-08-19T15:00:06;23.20;97.30
64209;DHT22;50527;52.414;13.226;2022-08-19T15:02:33;23.20;98.10
64209;DHT22;50527;52.414;13.226;2022-08-19T15:04:58;23.20;97.60
64209;DHT22;50527;52.414;13.226;2022-08-19T15:07:24;23.10;98.40
64209;DHT22;50527;52.414;13.226;2022-08-19T15:09:50;23.10;99.40
64209;DHT22;50527;52.414;13.226;2022-08-19T15:12:18;23.00;98.80
64209;DHT22;50527;52.414;13.226;2022-08-19T15:14:43;23.00;97.90
64209;DHT22;50527;52.414;13.226;2022-08-19T15:17:09;23.00;98.70
64209;DHT22;50527;52.414;13.226;2022-08-19T15:19:35;22.90;99.40
64209;DHT22;50527;52.414;13.226;2022-08-19T15:22:04;22.80;99.70
64209;DHT22;50527;52.414;13.226;2022-08-19T15:24:29;22.80;99.20
64209;DHT22;50527;52.414;13.226;2022-08-19T15:26:55;22.80;98.80